Time;durP1;ratioP1;P1;durP2;ratioP2;P2;SDS_P1;SDS_P2;PMS_P1;PMS_P2;Temp;Humidity;BMP_temperature;BMP_pressure;BME280_temperature;BME280_humidity;BME280_pressure;Samples;Min_cycle;Max_cycle;Signal;HPM_P1;HPM_P2
2022/04/24 00:00:21;;;;;;;2.67;2.47;;;;;;;;;;4925280;29;20199;-73
2022/04/24 00:02:48;;;;;;;3.70;3.40;;;;;;;;;;4925662;29;20271;-71
2022/04/24 00:05:15;;;;;;;4.15;3.85;;;;;;;;;;4924304;29;20192;-72
2022/04/24 00:07:43;;;;;;;3.78;3.45;;;;;;;;;;4926206;29;20201;-72
2022/04/24 00:10:11;;;;;;;3.92;3.63;;;;;;;;;;4922307;29;20231;-72
2022/04/24 00:12:39;;;;;;;3.00;2.78;;;;;;;;;;4916937;29;20230;-73
2022/04/24 00:15:06;;;;;;;2.67;2.47;;;;;;;;;;4919265;29;20200;-73
2022/04/24 00:17:33;;;;;;;3.97;3.67;;;;;;;;;;4943450;29;20205;-72
2022/04/24 00:20:01;;;;;;;3.40;3.10;;;;;;;;;;4933553;28;20198;-72
2022/04/24 00:22:28;;;;;;;5.25;2.85;;;;;;;;;;4935299;29;20226;-72
2022/04/24 00:24:55;;;;;;;3.45;3.15;;;;;;;;;;4918584;29;20562;-73
2022/04/24 00:27:23;;;;;;;3.85;3.50;;;;;;;;;;4932282;29;20237;-72
2022/04/24 00:29:51;;;;;;;3.65;3.35;;;;;;;;;;4945805;29;20195;-72
2022/04/24 00:32:18;;;;;;;3.25;2.95;;;;;;;;;;4937574;29;20757;-72
2022/04/24 00:34:45;;;;;;;3.90;3.08;;;;;;;;;;4940694;29;20655;-73
2022/04/24 00:37:12;;;;;;;2.88;2.67;;;;;;;;;;4930533;29;20203;-73
2022/04/24 00:39:39;;;;;;;3.65;3.35;;;;;;;;;;4933311;29;20238;-72
2022/04/24 00:42:09;;;;;;;3.85;3.55;;;;;;;;;;4924271;29;20195;-73
2022/04/24 00:44:37;;;;;;;3.45;3.15;;;;;;;;;;4936459;29;20194;-72
2022/04/24 00:47:08;;;;;;;4.72;4.05;;;;;;;;;;4931763;29;20203;-74
2022/04/24 00:49:35;;;;;;;3.00;2.80;;;;;;;;;;4930892;29;20555;-72
2022/04/24 00:52:02;;;;;;;4.10;3.75;;;;;;;;;;4923204;29;20198;-73
2022/04/24 00:54:30;;;;;;;4.40;3.28;;;;;;;;;;4921274;29;20279;-74
2022/04/24 00:56:57;;;;;;;3.10;2.90;;;;;;;;;;4940565;29;20207;-72
2022/04/24 00:59:24;;;;;;;3.08;2.88;;;;;;;;;;4930898;29;20195;-73
2022/04/24 01:01:53;;;;;;;3.47;2.58;;;;;;;;;;4922439;29;20200;-72
2022/04/24 01:04:20;;;;;;;3.30;3.05;;;;;;;;;;4938144;29;20733;-73
2022/04/24 01:06:47;;;;;;;3.90;3.60;;;;;;;;;;4934825;29;20199;-72
2022/04/24 01:09:15;;;;;;;3.88;3.58;;;;;;;;;;4934970;29;20202;-72
2022/04/24 01:11:42;;;;;;;4.18;3.88;;;;;;;;;;4926072;29;20230;-73
2022/04/24 01:14:10;;;;;;;3.67;3.38;;;;;;;;;;4931170;29;20297;-72
2022/04/24 01:16:37;;;;;;;3.47;3.20;;;;;;;;;;4933575;29;20203;-74
2022/04/24 01:19:06;;;;;;;3.60;3.30;;;;;;;;;;4938551;29;20209;-72
2022/04/24 01:21:35;;;;;;;3.30;3.10;;;;;;;;;;4931982;29;20209;-74
2022/04/24 01:24:02;;;;;;;4.07;3.67;;;;;;;;;;4934737;29;20207;-74
2022/04/24 01:26:29;;;;;;;3.85;3.55;;;;;;;;;;4937438;29;20221;-72
2022/04/24 01:28:56;;;;;;;3.67;3.38;;;;;;;;;;4943764;29;20206;-73
2022/04/24 01:31:23;;;;;;;3.45;3.03;;;;;;;;;;4925755;29;20199;-72
2022/04/24 01:33:50;;;;;;;3.58;3.28;;;;;;;;;;4935527;29;20218;-73
2022/04/24 01:36:17;;;;;;;3.67;3.30;;;;;;;;;;4928963;29;20198;-72
2022/04/24 01:38:46;;;;;;;3.40;3.10;;;;;;;;;;4931538;29;20206;-73
2022/04/24 01:41:13;;;;;;;4.47;3.50;;;;;;;;;;4934372;29;20199;-72
2022/04/24 01:43:41;;;;;;;3.55;3.25;;;;;;;;;;4926468;29;20207;-71
2022/04/24 01:46:09;;;;;;;4.72;3.63;;;;;;;;;;4928430;29;20202;-71
2022/04/24 01:48:36;;;;;;;5.32;3.55;;;;;;;;;;4928485;29;20204;-71
2022/04/24 01:51:04;;;;;;;3.45;3.15;;;;;;;;;;4929411;29;20217;-71
2022/04/24 01:53:31;;;;;;;4.15;3.75;;;;;;;;;;4935492;29;20219;-73
2022/04/24 01:55:59;;;;;;;3.90;3.60;;;;;;;;;;4933531;29;20203;-72
2022/04/24 01:58:26;;;;;;;3.67;3.38;;;;;;;;;;4936445;29;20198;-71
2022/04/24 02:00:54;;;;;;;4.25;3.92;;;;;;;;;;4937119;29;20202;-74
2022/04/24 02:03:21;;;;;;;3.42;3.05;;;;;;;;;;4928441;29;20218;-73
2022/04/24 02:05:48;;;;;;;3.80;3.40;;;;;;;;;;4927952;29;20199;-73
2022/04/24 02:08:15;;;;;;;3.92;3.60;;;;;;;;;;4936371;29;20200;-72
2022/04/24 02:10:43;;;;;;;3.83;3.53;;;;;;;;;;4939481;29;20202;-72
2022/04/24 02:13:11;;;;;;;4.00;3.70;;;;;;;;;;4923588;29;20729;-72
2022/04/24 02:15:38;;;;;;;3.53;3.22;;;;;;;;;;4928052;29;20206;-72
2022/04/24 02:18:06;;;;;;;5.22;4.25;;;;;;;;;;4936261;29;20250;-73
2022/04/24 02:20:33;;;;;;;4.53;4.05;;;;;;;;;;4938082;29;20217;-72
2022/04/24 02:23:01;;;;;;;4.25;3.60;;;;;;;;;;4932137;29;20232;-72
2022/04/24 02:25:28;;;;;;;4.43;3.80;;;;;;;;;;4932803;29;20603;-73
2022/04/24 02:27:56;;;;;;;3.85;3.55;;;;;;;;;;4931675;29;20202;-73
2022/04/24 02:30:25;;;;;;;4.25;3.95;;;;;;;;;;4937217;29;21435;-72
2022/04/24 02:32:52;;;;;;;4.05;3.78;;;;;;;;;;4934921;29;20226;-73
2022/04/24 02:35:19;;;;;;;3.92;3.63;;;;;;;;;;4930865;29;20203;-76
2022/04/24 02:37:47;;;;;;;5.20;4.10;;;;;;;;;;4923227;29;20223;-75
2022/04/24 02:40:15;;;;;;;4.07;3.65;;;;;;;;;;4931040;29;20230;-73
2022/04/24 02:42:42;;;;;;;4.10;3.70;;;;;;;;;;4928916;29;20726;-73
2022/04/24 02:45:10;;;;;;;4.03;3.72;;;;;;;;;;4938387;29;20210;-74
2022/04/24 02:47:39;;;;;;;4.50;4.10;;;;;;;;;;4936364;29;20266;-74
2022/04/24 02:50:06;;;;;;;5.00;4.32;;;;;;;;;;4931528;29;20231;-72
2022/04/24 02:52:33;;;;;;;4.45;3.88;;;;;;;;;;4926707;29;20228;-73
2022/04/24 02:55:00;;;;;;;5.05;4.60;;;;;;;;;;4925401;29;20280;-74
2022/04/24 02:57:28;;;;;;;4.30;3.95;;;;;;;;;;4930722;29;20231;-73
2022/04/24 02:59:55;;;;;;;5.18;3.97;;;;;;;;;;4930125;29;20561;-73
2022/04/24 03:02:22;;;;;;;5.28;3.55;;;;;;;;;;4938942;29;20209;-72
2022/04/24 03:04:51;;;;;;;4.35;3.95;;;;;;;;;;4932033;29;20207;-71
2022/04/24 03:07:18;;;;;;;4.60;4.20;;;;;;;;;;4917684;29;20207;-73
2022/04/24 03:09:45;;;;;;;5.13;4.63;;;;;;;;;;4932238;29;20199;-72
2022/04/24 03:12:12;;;;;;;4.65;4.18;;;;;;;;;;4925198;29;20596;-71
2022/04/24 03:14:39;;;;;;;4.30;3.90;;;;;;;;;;4923455;29;20225;-71
2022/04/24 03:17:06;;;;;;;3.95;3.65;;;;;;;;;;4932146;29;20207;-72
2022/04/24 03:19:33;;;;;;;4.85;4.38;;;;;;;;;;4935164;29;20218;-72
2022/04/24 03:22:01;;;;;;;4.43;4.03;;;;;;;;;;4929566;29;20203;-72
2022/04/24 03:24:28;;;;;;;5.03;4.55;;;;;;;;;;4922752;29;20203;-72
2022/04/24 03:26:56;;;;;;;4.25;3.95;;;;;;;;;;4929000;29;20213;-71
2022/04/24 03:29:24;;;;;;;4.43;4.03;;;;;;;;;;4935630;29;20206;-72
2022/04/24 03:31:51;;;;;;;5.45;5.05;;;;;;;;;;4928274;29;20200;-72
2022/04/24 03:34:18;;;;;;;4.65;4.25;;;;;;;;;;4932950;29;20223;-72
2022/04/24 03:36:45;;;;;;;4.55;4.15;;;;;;;;;;4920714;29;20229;-73
2022/04/24 03:39:13;;;;;;;5.65;5.00;;;;;;;;;;4922050;29;20219;-72
2022/04/24 03:41:41;;;;;;;4.70;4.30;;;;;;;;;;4931622;29;20202;-72
2022/04/24 03:44:08;;;;;;;4.40;4.10;;;;;;;;;;4931351;29;20607;-72
2022/04/24 03:46:35;;;;;;;5.00;4.60;;;;;;;;;;4930864;29;20206;-71
2022/04/24 03:49:02;;;;;;;4.60;4.20;;;;;;;;;;4921704;29;20202;-71
2022/04/24 03:51:29;;;;;;;4.80;4.40;;;;;;;;;;4927238;29;20646;-71
2022/04/24 03:53:56;;;;;;;4.03;3.70;;;;;;;;;;4936234;29;20219;-71
2022/04/24 03:56:25;;;;;;;4.43;4.03;;;;;;;;;;4936180;29;20666;-71
2022/04/24 03:58:52;;;;;;;5.60;4.45;;;;;;;;;;4943213;29;20194;-71
2022/04/24 04:01:19;;;;;;;5.95;4.38;;;;;;;;;;4934980;29;20195;-75
2022/04/24 04:03:46;;;;;;;5.32;4.88;;;;;;;;;;4928096;29;20210;-71
2022/04/24 04:06:13;;;;;;;5.03;4.63;;;;;;;;;;4931476;29;20202;-73
2022/04/24 04:08:40;;;;;;;4.40;4.00;;;;;;;;;;4945207;29;20657;-71
2022/04/24 04:11:07;;;;;;;4.07;3.72;;;;;;;;;;4942104;29;20209;-73
2022/04/24 04:13:36;;;;;;;3.95;3.65;;;;;;;;;;4929930;29;20223;-71
2022/04/24 04:16:03;;;;;;;4.10;3.80;;;;;;;;;;4932732;29;20195;-71
2022/04/24 04:18:30;;;;;;;5.07;4.47;;;;;;;;;;4936602;29;20688;-71
2022/04/24 04:20:57;;;;;;;6.57;4.40;;;;;;;;;;4934615;29;20200;-70
2022/04/24 04:23:24;;;;;;;4.97;4.32;;;;;;;;;;4934076;29;20202;-71
2022/04/24 04:25:51;;;;;;;4.20;3.80;;;;;;;;;;4935547;29;20285;-71
2022/04/24 04:28:18;;;;;;;5.03;4.55;;;;;;;;;;4930884;29;20206;-72
2022/04/24 04:30:46;;;;;;;3.85;3.55;;;;;;;;;;4936145;29;20210;-71
2022/04/24 04:33:14;;;;;;;3.85;3.00;;;;;;;;;;4937053;29;20199;-72
2022/04/24 04:35:41;;;;;;;4.50;4.13;;;;;;;;;;4932132;29;20194;-71
2022/04/24 04:38:08;;;;;;;4.93;4.53;;;;;;;;;;4934479;29;20221;-72
2022/04/24 04:40:35;;;;;;;3.83;3.53;;;;;;;;;;4930216;29;20215;-72
2022/04/24 04:43:02;;;;;;;4.55;4.15;;;;;;;;;;4935105;29;20190;-73
2022/04/24 04:45:29;;;;;;;5.57;4.47;;;;;;;;;;4944513;29;20201;-72
2022/04/24 04:47:57;;;;;;;4.35;4.05;;;;;;;;;;4936743;29;20199;-73
2022/04/24 04:50:24;;;;;;;5.22;4.43;;;;;;;;;;4926531;29;20276;-76
2022/04/24 04:52:52;;;;;;;4.40;4.00;;;;;;;;;;4925412;29;20519;-72
2022/04/24 04:55:19;;;;;;;4.47;3.70;;;;;;;;;;4936661;29;20226;-72
2022/04/24 04:57:47;;;;;;;4.28;3.88;;;;;;;;;;4926087;29;20203;-72
2022/04/24 05:00:15;;;;;;;4.30;3.90;;;;;;;;;;4929082;29;20588;-73
2022/04/24 05:02:43;;;;;;;7.30;5.22;;;;;;;;;;4938119;29;20202;-75
2022/04/24 05:05:11;;;;;;;3.75;3.45;;;;;;;;;;4931607;29;20210;-75
2022/04/24 05:07:38;;;;;;;3.90;3.60;;;;;;;;;;4935798;29;20207;-72
2022/04/24 05:10:06;;;;;;;4.10;3.60;;;;;;;;;;4943240;29;20654;-70
2022/04/24 05:12:33;;;;;;;5.72;3.85;;;;;;;;;;4924123;29;20215;-75
2022/04/24 05:15:01;;;;;;;3.50;3.20;;;;;;;;;;4923305;29;20229;-71
2022/04/24 05:17:28;;;;;;;3.72;3.35;;;;;;;;;;4929365;29;20325;-70
2022/04/24 05:19:55;;;;;;;3.80;3.50;;;;;;;;;;4930680;29;20204;-72
2022/04/24 05:22:23;;;;;;;4.93;3.63;;;;;;;;;;4941279;29;20217;-74
2022/04/24 05:24:51;;;;;;;4.85;3.95;;;;;;;;;;4923841;29;20205;-72
2022/04/24 05:27:19;;;;;;;3.90;3.35;;;;;;;;;;4927372;29;20562;-70
2022/04/24 05:29:46;;;;;;;4.10;3.05;;;;;;;;;;4933156;29;20206;-71
2022/04/24 05:32:13;;;;;;;3.10;2.88;;;;;;;;;;4937974;29;20191;-73
2022/04/24 05:34:40;;;;;;;3.90;3.50;;;;;;;;;;4947105;29;20229;-72
2022/04/24 05:37:08;;;;;;;3.42;3.13;;;;;;;;;;4931110;29;20226;-73
2022/04/24 05:39:37;;;;;;;4.20;3.53;;;;;;;;;;4919913;29;20682;-73
2022/04/24 05:42:04;;;;;;;3.63;3.33;;;;;;;;;;4928843;29;20296;-73
2022/04/24 05:44:31;;;;;;;3.95;3.53;;;;;;;;;;4934639;29;20213;-73
2022/04/24 05:46:59;;;;;;;3.30;2.88;;;;;;;;;;4934248;29;20203;-73
2022/04/24 05:49:26;;;;;;;5.30;3.03;;;;;;;;;;4922905;29;20200;-74
2022/04/24 05:51:53;;;;;;;3.72;3.42;;;;;;;;;;4936317;29;20602;-73
2022/04/24 05:54:20;;;;;;;3.17;2.90;;;;;;;;;;4929969;29;20219;-70
2022/04/24 05:56:49;;;;;;;3.13;2.92;;;;;;;;;;4932661;29;20199;-70
2022/04/24 05:59:16;;;;;;;3.17;2.97;;;;;;;;;;4933663;29;20202;-71
2022/04/24 06:01:43;;;;;;;3.47;3.17;;;;;;;;;;4937039;29;20214;-71
2022/04/24 06:04:10;;;;;;;3.60;3.30;;;;;;;;;;4937495;29;20206;-71
2022/04/24 06:06:37;;;;;;;2.88;2.67;;;;;;;;;;4934267;29;20236;-73
2022/04/24 06:09:06;;;;;;;3.42;3.13;;;;;;;;;;4930406;29;20195;-71
2022/04/24 06:11:33;;;;;;;4.07;3.30;;;;;;;;;;4928938;29;20572;-73
2022/04/24 06:14:01;;;;;;;3.75;2.90;;;;;;;;;;4931705;29;20227;-73
2022/04/24 06:16:29;;;;;;;5.45;3.03;;;;;;;;;;4928883;29;20191;-72
2022/04/24 06:18:56;;;;;;;2.97;2.78;;;;;;;;;;4927338;29;20201;-71
2022/04/24 06:21:23;;;;;;;3.78;3.25;;;;;;;;;;4931961;29;20194;-72
2022/04/24 06:23:51;;;;;;;2.20;2.10;;;;;;;;;;4936700;29;20199;-73
2022/04/24 06:26:18;;;;;;;5.13;3.13;;;;;;;;;;4932690;29;20202;-73
2022/04/24 06:28:45;;;;;;;3.80;2.92;;;;;;;;;;4926067;29;20191;-72
2022/04/24 06:31:13;;;;;;;3.50;3.20;;;;;;;;;;4927952;29;20206;-75
2022/04/24 06:33:40;;;;;;;4.07;3.10;;;;;;;;;;4927091;29;20209;-75
2022/04/24 06:36:07;;;;;;;5.32;2.55;;;;;;;;;;4927412;29;20194;-75
2022/04/24 06:38:35;;;;;;;3.75;3.05;;;;;;;;;;4926441;29;20212;-74
2022/04/24 06:41:02;;;;;;;2.95;2.70;;;;;;;;;;4928605;29;20219;-76
2022/04/24 06:43:29;;;;;;;3.38;3.08;;;;;;;;;;4925105;29;20199;-74
2022/04/24 06:45:56;;;;;;;3.30;3.03;;;;;;;;;;4927771;29;20238;-74
2022/04/24 06:48:24;;;;;;;3.38;3.08;;;;;;;;;;4925212;29;20210;-74
2022/04/24 06:50:52;;;;;;;3.50;3.20;;;;;;;;;;4930318;29;20209;-76
2022/04/24 06:53:20;;;;;;;4.70;3.40;;;;;;;;;;4924302;29;20195;-74
2022/04/24 06:55:48;;;;;;;3.85;3.15;;;;;;;;;;4929379;29;20258;-74
2022/04/24 06:58:16;;;;;;;4.35;3.10;;;;;;;;;;4931632;29;20196;-74
2022/04/24 07:00:43;;;;;;;4.60;3.42;;;;;;;;;;4929457;29;20212;-74
2022/04/24 07:03:11;;;;;;;3.25;2.58;;;;;;;;;;4928081;29;20654;-74
2022/04/24 07:05:39;;;;;;;2.83;2.45;;;;;;;;;;4929273;29;20582;-75
2022/04/24 07:08:07;;;;;;;3.22;2.83;;;;;;;;;;4926496;29;20199;-75
2022/04/24 07:10:34;;;;;;;3.40;3.10;;;;;;;;;;4926842;29;20191;-74
2022/04/24 07:13:01;;;;;;;4.35;3.30;;;;;;;;;;4928185;29;20242;-75
2022/04/24 07:15:30;;;;;;;3.17;2.90;;;;;;;;;;4923482;29;20230;-73
2022/04/24 07:17:58;;;;;;;3.72;3.33;;;;;;;;;;4932643;29;20210;-73
2022/04/24 07:20:25;;;;;;;3.17;2.53;;;;;;;;;;4940474;29;20225;-74
2022/04/24 07:22:54;;;;;;;4.57;3.70;;;;;;;;;;4929842;29;20203;-73
2022/04/24 07:25:21;;;;;;;6.38;2.97;;;;;;;;;;4929841;29;20222;-74
2022/04/24 07:27:48;;;;;;;2.75;2.55;;;;;;;;;;4923293;29;20224;-74
2022/04/24 07:30:16;;;;;;;3.70;3.38;;;;;;;;;;4926868;29;20207;-74
2022/04/24 07:32:44;;;;;;;4.50;4.05;;;;;;;;;;4929476;29;20207;-74
2022/04/24 07:35:13;;;;;;;3.53;3.22;;;;;;;;;;4927217;29;20238;-74
2022/04/24 07:37:40;;;;;;;3.20;2.83;;;;;;;;;;4927352;29;20200;-74
2022/04/24 07:40:09;;;;;;;3.67;3.38;;;;;;;;;;4926930;28;20241;-74
2022/04/24 07:42:47;;;;;;;3.45;3.15;;;;;;;;;;4929195;29;20208;-74
2022/04/24 07:45:17;;;;;;;3.72;3.42;;;;;;;;;;4928579;29;20643;-74
2022/04/24 07:47:46;;;;;;;4.03;3.72;;;;;;;;;;4927429;29;20662;-74
2022/04/24 07:50:13;;;;;;;5.22;3.60;;;;;;;;;;4925487;29;20240;-75
2022/04/24 07:52:40;;;;;;;6.20;4.18;;;;;;;;;;4924997;29;20192;-75
2022/04/24 07:55:09;;;;;;;4.07;3.58;;;;;;;;;;4927534;29;20219;-74
2022/04/24 07:57:36;;;;;;;3.55;3.15;;;;;;;;;;4927673;29;20218;-74
2022/04/24 08:00:03;;;;;;;4.35;3.95;;;;;;;;;;4928039;29;20682;-73
2022/04/24 08:02:30;;;;;;;4.10;3.80;;;;;;;;;;4926153;29;20212;-73
2022/04/24 08:04:57;;;;;;;4.93;4.38;;;;;;;;;;4920699;29;20207;-72
2022/04/24 08:07:25;;;;;;;4.00;3.47;;;;;;;;;;4925693;29;20209;-73
2022/04/24 08:09:52;;;;;;;5.70;5.20;;;;;;;;;;4923079;29;20204;-74
2022/04/24 08:12:20;;;;;;;4.65;4.25;;;;;;;;;;4924619;29;20195;-73
2022/04/24 08:14:47;;;;;;;6.05;5.28;;;;;;;;;;4924059;29;20227;-74
2022/04/24 08:17:14;;;;;;;4.00;3.60;;;;;;;;;;4926689;29;20208;-73
2022/04/24 08:19:41;;;;;;;4.68;4.28;;;;;;;;;;4927388;29;20199;-73
2022/04/24 08:22:08;;;;;;;4.32;3.92;;;;;;;;;;4928531;29;20191;-74
2022/04/24 08:24:35;;;;;;;4.85;3.90;;;;;;;;;;4924552;29;20204;-73
2022/04/24 08:27:02;;;;;;;9.25;4.88;;;;;;;;;;4925277;29;20202;-74
2022/04/24 08:29:31;;;;;;;9.20;4.90;;;;;;;;;;4921408;29;20200;-73
2022/04/24 08:31:58;;;;;;;10.18;4.75;;;;;;;;;;4924287;29;20263;-73
2022/04/24 08:34:25;;;;;;;4.63;4.10;;;;;;;;;;4922925;29;20567;-73
2022/04/24 08:36:52;;;;;;;3.90;3.60;;;;;;;;;;4929476;29;20207;-73
2022/04/24 08:39:19;;;;;;;6.60;5.15;;;;;;;;;;4927156;29;20546;-73
2022/04/24 08:41:46;;;;;;;4.32;3.85;;;;;;;;;;4921542;29;20207;-73
2022/04/24 08:44:14;;;;;;;5.47;4.97;;;;;;;;;;4921639;29;20203;-74
2022/04/24 08:46:44;;;;;;;5.13;4.60;;;;;;;;;;4925937;29;20206;-73
2022/04/24 08:49:12;;;;;;;4.72;4.32;;;;;;;;;;4925409;29;20195;-73
2022/04/24 08:51:40;;;;;;;5.30;4.63;;;;;;;;;;4920742;29;20214;-73
2022/04/24 08:54:08;;;;;;;5.65;4.38;;;;;;;;;;4935540;29;20205;-74
2022/04/24 08:56:35;;;;;;;5.30;4.50;;;;;;;;;;4933598;29;20231;-73
2022/04/24 08:59:02;;;;;;;4.80;4.40;;;;;;;;;;4934850;29;20207;-74
2022/04/24 09:01:29;;;;;;;15.20;5.95;;;;;;;;;;4932570;29;20207;-73
2022/04/24 09:03:59;;;;;;;5.40;4.15;;;;;;;;;;4924164;29;20553;-74
2022/04/24 09:06:26;;;;;;;8.80;4.90;;;;;;;;;;4931330;29;20209;-73
2022/04/24 09:08:53;;;;;;;4.68;4.28;;;;;;;;;;4933837;29;20833;-74
2022/04/24 09:11:23;;;;;;;4.43;4.03;;;;;;;;;;4927872;29;20200;-73
2022/04/24 09:16:37;;;;;;;5.10;4.63;;;;;;;;;;4940813;29;20250;-73
2022/04/24 09:19:06;;;;;;;5.43;4.93;;;;;;;;;;4937449;29;20396;-73
2022/04/24 09:21:33;;;;;;;4.22;3.92;;;;;;;;;;4926252;29;20263;-73
2022/04/24 09:24:01;;;;;;;5.38;4.70;;;;;;;;;;4917042;29;20197;-74
2022/04/24 09:26:28;;;;;;;5.53;4.60;;;;;;;;;;4932114;29;20204;-73
2022/04/24 09:28:55;;;;;;;4.65;4.25;;;;;;;;;;4940668;29;20201;-74
2022/04/24 09:31:29;;;;;;;3.80;3.50;;;;;;;;;;4929698;29;20204;-74
2022/04/24 09:33:56;;;;;;;5.32;4.80;;;;;;;;;;4934743;29;20233;-73
2022/04/24 09:36:27;;;;;;;5.88;4.20;;;;;;;;;;4934979;29;20228;-74
2022/04/24 09:38:54;;;;;;;4.95;4.45;;;;;;;;;;4923004;29;20204;-73
2022/04/24 09:41:22;;;;;;;4.85;4.45;;;;;;;;;;4931648;29;20196;-73
2022/04/24 09:43:49;;;;;;;4.53;4.13;;;;;;;;;;4926292;29;20203;-74
2022/04/24 09:46:25;;;;;;;4.97;4.57;;;;;;;;;;4923761;29;20204;-73
2022/04/24 09:48:52;;;;;;;5.80;4.60;;;;;;;;;;4928926;29;20227;-73
2022/04/24 09:51:20;;;;;;;5.90;4.53;;;;;;;;;;4928490;29;20191;-73
2022/04/24 09:53:49;;;;;;;4.95;4.55;;;;;;;;;;4936947;29;20207;-74
2022/04/24 09:56:16;;;;;;;8.80;4.05;;;;;;;;;;4930207;29;20215;-74
2022/04/24 09:58:45;;;;;;;5.20;4.25;;;;;;;;;;4926592;29;20220;-73
2022/04/24 10:01:13;;;;;;;6.60;6.00;;;;;;;;;;4922794;29;20228;-74
2022/04/24 10:03:41;;;;;;;5.70;5.20;;;;;;;;;;4927246;29;20657;-73
2022/04/24 10:06:09;;;;;;;5.80;5.20;;;;;;;;;;4931526;29;20212;-73
2022/04/24 10:08:36;;;;;;;4.93;4.05;;;;;;;;;;4934571;29;20205;-73
2022/04/24 10:11:05;;;;;;;6.15;4.57;;;;;;;;;;4929758;29;20246;-73
2022/04/24 10:13:33;;;;;;;6.55;5.38;;;;;;;;;;4934454;29;20210;-75
2022/04/24 10:16:03;;;;;;;5.30;4.80;;;;;;;;;;4930949;29;20224;-68
2022/04/24 10:18:42;;;;;;;4.72;4.32;;;;;;;;;;4932166;29;20650;-71
2022/04/24 10:21:20;;;;;;;7.50;5.03;;;;;;;;;;4922159;29;20931;-71
2022/04/24 10:23:47;;;;;;;5.43;4.93;;;;;;;;;;4934570;29;20210;-71
2022/04/24 10:26:19;;;;;;;5.40;4.90;;;;;;;;;;4935361;29;20253;-71
2022/04/24 10:28:47;;;;;;;5.65;5.15;;;;;;;;;;4938274;29;20206;-72
2022/04/24 10:31:14;;;;;;;5.38;4.40;;;;;;;;;;4931741;29;20288;-71
2022/04/24 10:33:51;;;;;;;5.68;5.18;;;;;;;;;;4932977;29;20567;-73
2022/04/24 10:36:18;;;;;;;5.88;5.38;;;;;;;;;;4928626;29;20223;-70
2022/04/24 10:38:49;;;;;;;6.63;5.35;;;;;;;;;;4925427;29;20425;-70
2022/04/24 10:41:17;;;;;;;5.97;5.38;;;;;;;;;;4925232;29;20211;-71
2022/04/24 10:43:48;;;;;;;7.70;4.90;;;;;;;;;;4930881;29;20286;-71
2022/04/24 10:46:22;;;;;;;11.23;5.38;;;;;;;;;;4926721;29;20237;-70
2022/04/24 10:48:49;;;;;;;5.85;5.28;;;;;;;;;;4931420;29;20208;-71
2022/04/24 10:51:28;;;;;;;8.18;6.13;;;;;;;;;;4926148;29;20623;-71
2022/04/24 10:53:57;;;;;;;4.97;4.43;;;;;;;;;;4930798;29;20674;-70
2022/04/24 10:56:24;;;;;;;8.15;5.75;;;;;;;;;;4927362;29;20219;-73
2022/04/24 10:58:52;;;;;;;5.15;4.65;;;;;;;;;;4927560;29;20967;-71
2022/04/24 11:01:20;;;;;;;5.65;5.10;;;;;;;;;;4928699;29;20543;-71
2022/04/24 11:03:48;;;;;;;5.43;4.85;;;;;;;;;;4928960;29;20203;-73
2022/04/24 11:06:22;;;;;;;7.13;5.72;;;;;;;;;;4927816;29;20210;-72
2022/04/24 11:08:49;;;;;;;5.85;5.32;;;;;;;;;;4931552;29;20204;-73
2022/04/24 11:11:16;;;;;;;6.22;5.57;;;;;;;;;;4930617;29;20209;-71
2022/04/24 11:13:43;;;;;;;6.30;5.30;;;;;;;;;;4926406;29;20560;-74
2022/04/24 11:16:12;;;;;;;5.38;4.88;;;;;;;;;;4925376;29;20232;-71
2022/04/24 11:18:39;;;;;;;6.20;5.70;;;;;;;;;;4927762;29;20606;-71
2022/04/24 11:21:07;;;;;;;5.20;4.57;;;;;;;;;;4923779;29;20553;-74
2022/04/24 11:23:36;;;;;;;5.53;5.03;;;;;;;;;;4935485;29;20214;-74
2022/04/24 11:26:05;;;;;;;4.72;4.32;;;;;;;;;;4927715;29;20233;-71
2022/04/24 11:28:39;;;;;;;5.53;5.03;;;;;;;;;;4924764;29;20327;-73
2022/04/24 11:31:10;;;;;;;6.35;5.00;;;;;;;;;;4923960;29;20206;-71
2022/04/24 11:33:39;;;;;;;7.10;6.15;;;;;;;;;;4927860;29;20202;-73
2022/04/24 11:36:06;;;;;;;7.45;5.30;;;;;;;;;;4938484;29;20219;-71
2022/04/24 11:38:34;;;;;;;4.65;4.25;;;;;;;;;;4929312;29;20206;-70
2022/04/24 11:41:03;;;;;;;6.65;5.72;;;;;;;;;;4928198;29;20235;-71
2022/04/24 11:43:30;;;;;;;5.80;5.30;;;;;;;;;;4930137;29;20230;-71
2022/04/24 11:51:32;;;;;;;4.07;3.78;;;;;;;;;;4929114;29;20578;-70
2022/04/24 11:53:59;;;;;;;4.80;4.40;;;;;;;;;;4928875;29;20297;-71
2022/04/24 11:56:27;;;;;;;6.13;5.07;;;;;;;;;;4936368;29;20233;-73
2022/04/24 11:59:05;;;;;;;4.85;4.40;;;;;;;;;;4929674;29;20203;-72
2022/04/24 12:01:32;;;;;;;5.10;4.30;;;;;;;;;;4929166;29;20556;-74
2022/04/24 12:04:00;;;;;;;4.35;3.95;;;;;;;;;;4929597;29;20210;-71
2022/04/24 12:06:32;;;;;;;4.57;4.18;;;;;;;;;;4927339;29;20210;-73
2022/04/24 12:09:06;;;;;;;4.88;4.05;;;;;;;;;;4933057;29;20202;-73
2022/04/24 12:11:35;;;;;;;5.05;4.43;;;;;;;;;;4923728;29;20711;-72
2022/04/24 12:14:02;;;;;;;5.93;5.32;;;;;;;;;;4922265;29;20199;-73
2022/04/24 12:16:30;;;;;;;5.22;4.72;;;;;;;;;;4929355;29;20231;-70
2022/04/24 12:18:58;;;;;;;5.50;4.15;;;;;;;;;;4935035;29;20206;-70
2022/04/24 12:21:26;;;;;;;4.60;4.20;;;;;;;;;;4938567;29;20237;-72
2022/04/24 12:23:54;;;;;;;4.53;4.13;;;;;;;;;;4931502;29;20630;-73
2022/04/24 12:26:21;;;;;;;5.22;4.57;;;;;;;;;;4934477;29;20210;-72
2022/04/24 12:28:49;;;;;;;5.10;4.60;;;;;;;;;;4934671;29;20211;-74
2022/04/24 12:31:23;;;;;;;4.50;4.10;;;;;;;;;;4928709;29;20574;-73
2022/04/24 12:33:50;;;;;;;4.63;3.83;;;;;;;;;;4933141;29;20203;-73
2022/04/24 12:36:17;;;;;;;7.32;5.75;;;;;;;;;;4937086;29;20223;-73
2022/04/24 12:38:55;;;;;;;4.30;3.95;;;;;;;;;;4932681;28;20215;-72
2022/04/24 12:41:24;;;;;;;6.00;5.00;;;;;;;;;;4939010;29;20221;-73
2022/04/24 12:43:51;;;;;;;4.78;4.05;;;;;;;;;;4929578;29;20211;-71
2022/04/24 12:46:19;;;;;;;4.07;3.70;;;;;;;;;;4928416;29;20207;-72
2022/04/24 12:48:47;;;;;;;4.82;4.43;;;;;;;;;;4941645;29;20207;-75
2022/04/24 12:51:14;;;;;;;4.30;4.00;;;;;;;;;;4935708;29;20576;-74
2022/04/24 12:53:42;;;;;;;5.18;4.65;;;;;;;;;;4932189;29;20203;-73
2022/04/24 12:56:10;;;;;;;4.80;4.40;;;;;;;;;;4928200;29;20356;-74
2022/04/24 12:58:38;;;;;;;5.03;4.55;;;;;;;;;;4924877;29;20203;-73
2022/04/24 13:01:06;;;;;;;4.10;3.80;;;;;;;;;;4924719;29;20220;-74
2022/04/24 13:03:33;;;;;;;4.43;4.03;;;;;;;;;;4929188;29;20191;-74
2022/04/24 13:06:00;;;;;;;5.72;4.10;;;;;;;;;;4929083;29;20210;-74
2022/04/24 13:08:28;;;;;;;4.40;4.10;;;;;;;;;;4926236;29;20211;-73
2022/04/24 13:11:03;;;;;;;7.70;5.57;;;;;;;;;;4920173;29;20282;-72
2022/04/24 13:13:33;;;;;;;5.97;5.03;;;;;;;;;;4933384;29;20626;-73
2022/04/24 13:18:45;;;;;;;4.65;4.18;;;;;;;;;;4930019;29;20303;-73
2022/04/24 13:21:12;;;;;;;4.70;4.30;;;;;;;;;;4933160;29;20418;-72
2022/04/24 13:23:40;;;;;;;4.50;4.05;;;;;;;;;;4924346;29;20290;-73
2022/04/24 13:26:07;;;;;;;4.60;4.25;;;;;;;;;;4933005;29;20206;-73
2022/04/24 13:28:36;;;;;;;4.88;4.00;;;;;;;;;;4927505;29;20646;-71
2022/04/24 13:31:03;;;;;;;4.70;4.30;;;;;;;;;;4931280;29;20200;-71
2022/04/24 13:33:30;;;;;;;5.32;4.82;;;;;;;;;;4927892;29;20213;-71
2022/04/24 13:35:57;;;;;;;5.05;4.60;;;;;;;;;;4930369;29;20214;-71
2022/04/24 13:38:24;;;;;;;4.70;4.30;;;;;;;;;;4936431;29;20213;-71
2022/04/24 13:40:53;;;;;;;4.85;3.63;;;;;;;;;;4931516;29;20220;-71
2022/04/24 13:43:21;;;;;;;4.15;3.33;;;;;;;;;;4931368;29;20202;-71
2022/04/24 13:45:50;;;;;;;4.07;3.70;;;;;;;;;;4924624;29;20589;-73
2022/04/24 13:48:17;;;;;;;4.45;3.80;;;;;;;;;;4924368;29;20642;-72
2022/04/24 13:50:44;;;;;;;4.30;3.40;;;;;;;;;;4926219;29;20207;-73
2022/04/24 13:53:11;;;;;;;11.05;5.85;;;;;;;;;;4929752;29;20562;-72
2022/04/24 13:55:39;;;;;;;3.90;3.60;;;;;;;;;;4933351;29;20569;-71
2022/04/24 13:58:06;;;;;;;4.25;3.45;;;;;;;;;;4940985;29;20218;-71
2022/04/24 14:00:35;;;;;;;4.00;3.70;;;;;;;;;;4928174;29;20207;-71
2022/04/24 14:03:03;;;;;;;4.18;3.80;;;;;;;;;;4929031;29;20299;-71
2022/04/24 14:05:31;;;;;;;4.53;4.13;;;;;;;;;;4930594;29;20322;-71
2022/04/24 14:07:58;;;;;;;3.45;3.15;;;;;;;;;;4933899;29;20815;-73
2022/04/24 14:10:25;;;;;;;3.97;3.47;;;;;;;;;;4938047;29;20211;-71
2022/04/24 14:12:52;;;;;;;5.50;3.58;;;;;;;;;;4930673;29;20203;-71
2022/04/24 14:15:22;;;;;;;5.05;4.63;;;;;;;;;;4918003;29;20202;-73
2022/04/24 14:17:50;;;;;;;5.00;4.50;;;;;;;;;;4930632;29;20235;-72
2022/04/24 14:20:20;;;;;;;4.35;3.92;;;;;;;;;;4933991;29;20615;-72
2022/04/24 14:22:47;;;;;;;3.88;3.58;;;;;;;;;;4925391;29;20300;-74
2022/04/24 14:25:14;;;;;;;4.18;3.78;;;;;;;;;;4928664;29;20631;-71
2022/04/24 14:27:41;;;;;;;3.20;3.00;;;;;;;;;;4935553;29;20214;-72
2022/04/24 14:30:10;;;;;;;4.38;4.00;;;;;;;;;;4922705;29;20208;-72
2022/04/24 14:32:38;;;;;;;4.20;3.90;;;;;;;;;;4925272;29;20209;-74
2022/04/24 14:35:06;;;;;;;3.38;3.15;;;;;;;;;;4927236;29;20735;-73
2022/04/24 14:37:34;;;;;;;4.03;3.72;;;;;;;;;;4928642;29;20299;-74
2022/04/24 14:40:01;;;;;;;4.05;3.65;;;;;;;;;;4931188;29;20235;-75
2022/04/24 14:42:28;;;;;;;3.25;3.03;;;;;;;;;;4930030;29;20203;-74
2022/04/24 14:44:56;;;;;;;5.30;4.80;;;;;;;;;;4923214;29;20199;-73
2022/04/24 14:55:49;;;;;;;4.78;3.65;;;;;;;;;;4926325;29;20231;-70
2022/04/24 14:58:16;;;;;;;3.60;3.28;;;;;;;;;;4930142;29;20306;-73
2022/04/24 15:00:43;;;;;;;4.95;3.60;;;;;;;;;;4923720;29;20209;-72
2022/04/24 15:03:11;;;;;;;3.28;3.05;;;;;;;;;;4934718;29;20194;-73
2022/04/24 15:05:39;;;;;;;3.63;3.33;;;;;;;;;;4932217;29;20686;-73